createdAt,value
2023-02-12T00:00:03.727Z,13.68
2023-02-12T00:01:01.717Z,13.24
2023-02-12T00:02:01.779Z,12.78
2023-02-12T00:03:01.740Z,12.45
2023-02-12T00:04:01.769Z,13.43
2023-02-12T00:05:01.762Z,13.32
2023-02-12T00:06:01.704Z,12.75
2023-02-12T00:07:01.756Z,13.62
2023-02-12T00:08:01.785Z,13.27
2023-02-12T00:09:01.738Z,13.33
2023-02-12T00:10:01.811Z,12.80
2023-02-12T00:11:01.811Z,13.42
2023-02-12T00:12:01.801Z,12.69
2023-02-12T00:13:01.862Z,13.17
2023-02-12T00:14:01.928Z,12.94
2023-02-12T00:15:01.940Z,12.35
2023-02-12T00:16:01.965Z,13.18
2023-02-12T00:17:01.972Z,12.80
2023-02-12T00:18:01.999Z,12.87
2023-02-12T00:19:02.028Z,12.83
2023-02-12T00:20:02.107Z,12.81
2023-02-12T00:21:02.124Z,12.85
2023-02-12T00:22:02.155Z,12.12
2023-02-12T00:23:02.184Z,12.40
2023-02-12T00:24:02.231Z,12.47
2023-02-12T00:25:02.260Z,12.45
2023-02-12T00:26:02.317Z,12.20
2023-02-12T00:27:02.367Z,12.30
2023-02-12T00:28:02.457Z,13.19
2023-02-12T00:29:02.493Z,13.85
2023-02-12T00:30:02.534Z,13.23
2023-02-12T00:31:02.591Z,12.90
2023-02-12T00:32:02.670Z,11.99
2023-02-12T00:33:02.561Z,12.80
2023-02-12T00:34:02.611Z,13.08
2023-02-12T00:35:02.647Z,13.24
2023-02-12T00:36:02.627Z,12.42
2023-02-12T00:37:02.709Z,11.88
2023-02-12T00:38:02.712Z,13.07
2023-02-12T00:39:02.762Z,11.89
2023-02-12T00:40:02.829Z,12.81
2023-02-12T00:41:02.823Z,12.73
2023-02-12T00:42:02.836Z,12.53
2023-02-12T00:43:02.876Z,12.39
2023-02-12T00:44:02.904Z,12.51
2023-02-12T00:45:02.959Z,12.82
2023-02-12T00:46:02.993Z,12.64
2023-02-12T00:47:02.998Z,12.55
2023-02-12T00:48:02.996Z,12.17
2023-02-12T00:49:03.049Z,12.06
2023-02-12T00:50:03.045Z,12.68
2023-02-12T00:51:03.113Z,12.76
2023-02-12T00:52:03.130Z,12.05
2023-02-12T00:53:03.152Z,12.67
2023-02-12T00:54:03.221Z,12.78
2023-02-12T00:55:03.222Z,11.83
2023-02-12T00:56:03.237Z,13.33
2023-02-12T00:57:03.270Z,12.62
2023-02-12T00:58:03.367Z,11.27
2023-02-12T00:59:03.378Z,12.29
2023-02-12T01:00:03.415Z,12.98
2023-02-12T01:01:03.447Z,12.81
2023-02-12T01:02:03.494Z,12.44
2023-02-12T01:03:03.536Z,12.23
2023-02-12T01:04:03.564Z,12.37
2023-02-12T01:05:03.692Z,12.81
2023-02-12T01:06:03.642Z,11.58
2023-02-12T01:07:03.683Z,12.79
2023-02-12T01:08:03.740Z,12.27
2023-02-12T01:09:03.775Z,12.58
2023-02-12T01:10:03.800Z,11.67
2023-02-12T01:11:03.875Z,13.14
2023-02-12T01:12:03.882Z,11.98
2023-02-12T01:13:03.970Z,11.65
2023-02-12T01:14:04.009Z,12.59
2023-02-12T01:15:04.044Z,12.76
2023-02-12T01:16:04.188Z,12.07
2023-02-12T01:17:04.104Z,11.95
2023-02-12T01:18:04.181Z,11.63
2023-02-12T01:19:04.193Z,12.44
2023-02-12T01:20:04.242Z,12.53
2023-02-12T01:21:04.281Z,12.06
2023-02-12T01:22:04.269Z,11.97
2023-02-12T01:23:04.317Z,12.51
2023-02-12T01:24:04.367Z,12.49
2023-02-12T01:25:04.401Z,11.55
2023-02-12T01:26:04.477Z,11.75
2023-02-12T01:27:04.505Z,11.95
2023-02-12T01:28:04.616Z,13.11
2023-02-12T01:29:04.594Z,12.93
2023-02-12T01:30:04.740Z,11.44
2023-02-12T01:31:04.816Z,11.91
2023-02-12T01:32:04.887Z,12.72
2023-02-12T01:33:04.842Z,12.17
2023-02-12T01:34:04.898Z,12.37
2023-02-12T01:35:04.949Z,11.72
2023-02-12T01:36:04.951Z,11.80
2023-02-12T01:37:05.000Z,11.70
2023-02-12T01:38:05.074Z,12.04
2023-02-12T01:39:05.130Z,11.89
2023-02-12T01:40:05.120Z,11.31
2023-02-12T01:41:05.189Z,11.54
2023-02-12T01:42:05.233Z,12.69
2023-02-12T01:43:05.267Z,11.65
2023-02-12T01:44:05.272Z,11.53
2023-02-12T01:45:05.339Z,12.21
2023-02-12T01:46:05.491Z,12.18
2023-02-12T01:47:05.459Z,12.93
2023-02-12T01:48:05.537Z,11.29
2023-02-12T01:49:05.552Z,11.23
2023-02-12T01:50:05.614Z,11.41
2023-02-12T01:51:05.673Z,11.29
2023-02-12T01:52:05.679Z,11.75
2023-02-12T01:53:05.796Z,12.24
2023-02-12T01:54:05.739Z,11.88
2023-02-12T01:55:05.819Z,10.74
2023-02-12T01:56:05.845Z,10.97
2023-02-12T01:57:05.966Z,11.80
2023-02-12T02:00:06.064Z,11.49
2023-02-12T02:01:06.172Z,12.25
2023-02-12T02:02:06.323Z,11.12
2023-02-12T02:03:06.266Z,12.64
2023-02-12T02:04:06.279Z,11.96
2023-02-12T02:05:06.378Z,10.59
2023-02-12T02:06:06.387Z,11.39
2023-02-12T02:07:06.521Z,11.72
2023-02-12T02:08:06.605Z,11.04
2023-02-12T02:09:06.554Z,11.65
2023-02-12T02:10:06.602Z,11.88
2023-02-12T02:11:06.648Z,10.79
2023-02-12T02:12:06.687Z,11.42
2023-02-12T02:13:06.851Z,11.44
2023-02-12T02:14:06.880Z,12.43
2023-02-12T02:15:06.872Z,11.44
2023-02-12T02:16:06.986Z,11.08
2023-02-12T02:17:06.994Z,10.38
2023-02-12T02:18:07.025Z,12.57
2023-02-12T02:19:07.122Z,11.04
2023-02-12T02:20:07.187Z,11.33
2023-02-12T02:21:07.238Z,11.33
2023-02-12T02:22:07.260Z,11.47
2023-02-12T02:23:07.297Z,11.93
2023-02-12T02:24:07.368Z,11.12
2023-02-12T02:25:07.392Z,11.34
2023-02-12T02:26:07.431Z,12.45
2023-02-12T02:27:07.472Z,10.94
2023-02-12T02:28:07.599Z,11.09
2023-02-12T02:29:07.598Z,10.54
2023-02-12T02:30:07.598Z,11.34
2023-02-12T02:31:07.707Z,11.99
2023-02-12T02:32:07.774Z,11.14
2023-02-12T02:33:07.748Z,10.97
2023-02-12T02:34:07.793Z,11.20
2023-02-12T02:35:07.851Z,11.89
2023-02-12T02:36:07.906Z,11.44
2023-02-12T02:37:07.908Z,10.91
2023-02-12T02:38:07.959Z,11.80
2023-02-12T02:39:08.040Z,10.75
2023-02-12T02:40:08.052Z,11.75
2023-02-12T02:41:08.068Z,12.13
2023-02-12T02:42:08.103Z,11.15
2023-02-12T02:43:08.213Z,11.87
2023-02-12T02:44:08.239Z,12.06
2023-02-12T02:45:08.301Z,11.21
2023-02-12T02:46:08.383Z,11.29
2023-02-12T02:47:08.388Z,11.46
2023-02-12T02:48:08.448Z,10.79
2023-02-12T02:49:08.456Z,11.35
2023-02-12T02:50:08.457Z,10.45
2023-02-12T02:51:08.520Z,11.77
2023-02-12T02:52:08.532Z,11.01
2023-02-12T02:53:08.568Z,10.97
2023-02-12T02:54:08.628Z,11.62
2023-02-12T02:55:08.664Z,11.10
2023-02-12T02:56:08.666Z,10.94
2023-02-12T02:57:08.717Z,11.10
2023-02-12T02:58:08.768Z,10.20
2023-02-12T02:59:08.781Z,12.02
2023-02-12T03:00:08.802Z,11.42
2023-02-12T03:01:08.879Z,10.15
2023-02-12T03:02:08.856Z,11.36
2023-02-12T03:03:08.949Z,10.60
2023-02-12T03:04:08.960Z,11.12
2023-02-12T03:05:09.078Z,11.61
2023-02-12T03:06:08.991Z,10.90
2023-02-12T03:07:09.040Z,11.16
2023-02-12T03:08:09.062Z,11.50
2023-02-12T03:09:09.122Z,11.39
2023-02-12T03:10:09.138Z,11.74
2023-02-12T03:11:09.169Z,11.15
2023-02-12T03:12:09.203Z,11.09
2023-02-12T03:13:09.217Z,10.18
2023-02-12T03:14:09.231Z,11.06
2023-02-12T03:15:09.247Z,10.64
2023-02-12T03:16:09.325Z,10.90
2023-02-12T03:17:09.302Z,11.41
2023-02-12T03:18:09.377Z,11.49
2023-02-12T03:19:09.370Z,10.78
2023-02-12T03:20:09.425Z,10.88
2023-02-12T03:21:09.448Z,10.80
2023-02-12T03:22:09.460Z,10.88
2023-02-12T03:23:09.496Z,10.85
2023-02-12T03:24:09.515Z,11.22
2023-02-12T03:25:09.580Z,11.26
2023-02-12T03:26:09.595Z,11.17
2023-02-12T03:27:09.596Z,11.29
2023-02-12T03:28:09.678Z,11.40
2023-02-12T03:29:09.662Z,10.33
2023-02-12T03:30:09.757Z,10.44
2023-02-12T03:31:09.855Z,10.75
2023-02-12T03:32:09.743Z,10.94
2023-02-12T03:33:09.794Z,10.78
2023-02-12T03:34:09.779Z,9.92
2023-02-12T03:35:09.838Z,11.05
2023-02-12T03:36:09.852Z,10.26
2023-02-12T03:37:09.890Z,10.44
2023-02-12T03:38:09.904Z,10.78
2023-02-12T03:39:09.939Z,10.78
2023-02-12T03:40:09.955Z,9.97
2023-02-12T03:41:10.005Z,10.60
2023-02-12T03:42:10.093Z,9.88
2023-02-12T03:43:10.080Z,11.07
2023-02-12T03:44:10.125Z,11.00
2023-02-12T03:45:10.171Z,9.68
2023-02-12T03:46:10.235Z,10.56
2023-02-12T03:47:10.205Z,10.80
2023-02-12T03:48:10.261Z,9.96
2023-02-12T03:49:10.300Z,10.87
2023-02-12T03:50:10.345Z,10.29
2023-02-12T03:51:10.353Z,10.37
2023-02-12T03:52:10.364Z,11.24
2023-02-12T03:53:10.426Z,10.33
2023-02-12T03:54:10.386Z,10.88
2023-02-12T03:55:10.442Z,10.80
2023-02-12T03:56:10.461Z,10.44
2023-02-12T03:57:10.514Z,10.78
2023-02-12T03:58:10.521Z,10.43
2023-02-12T03:59:10.554Z,10.75
2023-02-12T04:00:10.608Z,11.18
2023-02-12T04:01:10.764Z,10.07
2023-02-12T04:02:10.673Z,11.10
2023-02-12T04:03:10.673Z,10.03
2023-02-12T04:04:10.709Z,10.30
2023-02-12T04:05:10.709Z,11.73
2023-02-12T04:06:10.718Z,10.60
2023-02-12T04:07:10.761Z,10.01
2023-02-12T04:08:10.798Z,10.91
2023-02-12T04:09:10.834Z,10.56
2023-02-12T04:10:10.883Z,10.47
2023-02-12T04:11:10.912Z,10.41
2023-02-12T04:12:10.919Z,9.77
2023-02-12T04:13:10.978Z,10.28
2023-02-12T04:14:10.975Z,10.08
2023-02-12T04:15:10.959Z,11.00
2023-02-12T04:16:11.016Z,10.51
2023-02-12T04:17:11.018Z,10.56
2023-02-12T04:18:11.055Z,9.71
2023-02-12T04:19:11.063Z,10.05
2023-02-12T04:20:11.078Z,10.45
2023-02-12T04:21:11.133Z,10.06
2023-02-12T04:22:11.158Z,10.38
2023-02-12T04:23:11.208Z,10.30
2023-02-12T04:24:11.210Z,11.03
2023-02-12T04:25:11.261Z,10.24
2023-02-12T04:26:11.298Z,10.25
2023-02-12T04:27:11.315Z,10.52
2023-02-12T04:28:11.394Z,10.28
2023-02-12T04:29:11.392Z,10.10
2023-02-12T04:30:11.452Z,9.63
2023-02-12T04:31:11.613Z,10.47
2023-02-12T04:32:11.474Z,9.94
2023-02-12T04:33:11.527Z,9.35
2023-02-12T04:34:11.557Z,10.22
2023-02-12T04:35:11.585Z,9.96
2023-02-12T04:36:11.566Z,10.09
2023-02-12T04:37:11.595Z,9.53
2023-02-12T04:38:11.661Z,9.31
2023-02-12T04:39:11.660Z,10.10
2023-02-12T04:40:11.676Z,10.20
2023-02-12T04:41:11.772Z,9.25
2023-02-12T04:42:11.798Z,10.16
2023-02-12T04:43:11.770Z,10.60
2023-02-12T04:44:11.808Z,10.45
2023-02-12T04:45:11.825Z,9.43
2023-02-12T04:46:11.914Z,9.92
2023-02-12T04:47:11.886Z,10.46
2023-02-12T04:48:11.928Z,10.72
2023-02-12T04:49:11.995Z,10.04
2023-02-12T04:50:12.026Z,9.68
2023-02-12T04:51:12.039Z,10.39
2023-02-12T04:52:12.146Z,9.62
2023-02-12T04:53:12.094Z,9.47
2023-02-12T04:54:12.135Z,9.71
2023-02-12T04:55:12.157Z,9.58
2023-02-12T04:56:12.207Z,10.16
2023-02-12T04:57:12.215Z,9.96
2023-02-12T04:58:12.272Z,10.15
2023-02-12T04:59:12.296Z,9.83
2023-02-12T05:00:12.307Z,9.68
2023-02-12T05:01:12.445Z,10.70
2023-02-12T05:02:12.388Z,10.01
2023-02-12T05:03:12.457Z,9.75
2023-02-12T05:04:12.451Z,9.74
2023-02-12T05:05:12.517Z,10.48
2023-02-12T05:06:12.516Z,10.12
2023-02-12T05:07:12.544Z,9.61
2023-02-12T05:08:12.610Z,10.74
2023-02-12T05:09:12.590Z,9.86
2023-02-12T05:10:12.657Z,9.55
2023-02-12T05:11:12.665Z,9.35
2023-02-12T05:12:12.688Z,10.10
2023-02-12T05:13:12.741Z,9.86
2023-02-12T05:14:12.780Z,9.13
2023-02-12T05:15:12.837Z,10.87
2023-02-12T05:16:12.864Z,8.78
2023-02-12T05:17:12.847Z,10.00
2023-02-12T05:18:12.882Z,9.93
2023-02-12T05:19:12.891Z,10.28
2023-02-12T05:20:12.941Z,10.20
2023-02-12T05:21:12.931Z,10.80
2023-02-12T05:22:12.990Z,9.39
2023-02-12T05:23:13.023Z,9.87
2023-02-12T05:24:13.033Z,9.00
2023-02-12T05:25:13.066Z,10.22
2023-02-12T05:26:13.114Z,9.96
2023-02-12T05:27:13.159Z,9.44
2023-02-12T05:28:13.294Z,9.86
2023-02-12T05:29:13.264Z,10.47
2023-02-12T05:30:13.301Z,9.03
2023-02-12T05:31:13.479Z,9.23
2023-02-12T05:32:13.457Z,9.68
2023-02-12T05:33:13.417Z,9.92
2023-02-12T05:34:13.459Z,9.79
2023-02-12T05:35:13.469Z,9.78
2023-02-12T05:36:13.517Z,9.62
2023-02-12T05:37:13.580Z,9.60
2023-02-12T05:38:13.675Z,9.75
2023-02-12T05:39:13.688Z,10.42
2023-02-12T05:40:13.718Z,9.40
2023-02-12T05:53:14.163Z,9.82
2023-02-12T05:54:14.169Z,8.96
2023-02-12T05:55:14.223Z,9.80
2023-02-12T05:56:14.268Z,9.23
2023-02-12T05:57:14.302Z,10.23
2023-02-12T05:58:16.043Z,9.72
2023-02-12T05:59:14.380Z,9.54
2023-02-12T06:00:14.424Z,9.87
2023-02-12T06:01:14.425Z,9.92
2023-02-12T06:02:14.523Z,10.02
2023-02-12T06:03:14.497Z,9.49
2023-02-12T06:04:14.605Z,9.45
2023-02-12T06:05:14.616Z,9.24
2023-02-12T06:06:14.603Z,8.86
2023-02-12T06:07:14.644Z,9.44
2023-02-12T06:08:14.716Z,8.39
2023-02-12T06:09:14.748Z,10.09
2023-02-12T06:10:14.793Z,9.94
2023-02-12T06:11:14.838Z,8.84
2023-02-12T06:12:14.847Z,9.75
2023-02-12T06:13:14.881Z,10.00
2023-02-12T06:14:14.917Z,9.61
2023-02-12T06:15:14.931Z,8.93
2023-02-12T06:16:14.998Z,9.78
2023-02-12T06:17:14.985Z,9.26
2023-02-12T06:18:15.079Z,9.43
2023-02-12T06:19:15.146Z,9.53
2023-02-12T06:20:15.128Z,9.19
2023-02-12T06:21:15.154Z,9.67
2023-02-12T06:24:15.268Z,8.80
2023-02-12T06:25:15.303Z,9.40
2023-02-12T06:26:15.389Z,9.72
2023-02-12T06:27:15.392Z,9.49
2023-02-12T06:28:15.435Z,9.06
2023-02-12T06:29:15.452Z,8.98
2023-02-12T06:30:15.508Z,8.77
2023-02-12T06:31:15.550Z,9.41
2023-02-12T06:32:15.647Z,10.09
2023-02-12T06:33:15.577Z,8.88
2023-02-12T06:34:15.626Z,9.82
2023-02-12T06:35:15.654Z,9.35
2023-02-12T06:36:15.684Z,9.45
2023-02-12T06:37:15.713Z,8.64
2023-02-12T06:38:15.735Z,9.13
2023-02-12T06:39:15.915Z,8.59
2023-02-12T06:40:15.831Z,9.21
2023-02-12T06:41:15.846Z,8.95
2023-02-12T06:42:15.876Z,8.30
2023-02-12T06:43:15.928Z,9.02
2023-02-12T06:44:15.968Z,9.27
2023-02-12T06:45:16.012Z,9.93
2023-02-12T06:46:16.098Z,8.72
2023-02-12T06:47:16.083Z,9.44
2023-02-12T06:48:16.124Z,9.71
2023-02-12T06:49:16.192Z,9.98
2023-02-12T06:50:16.201Z,8.83
2023-02-12T06:51:16.224Z,9.27
2023-02-12T06:52:16.271Z,8.31
2023-02-12T06:53:16.285Z,8.82
2023-02-12T06:54:16.329Z,9.00
2023-02-12T06:55:16.334Z,9.53
2023-02-12T06:56:16.391Z,8.83
2023-02-12T06:57:16.401Z,8.93
2023-02-12T06:58:16.419Z,8.87
2023-02-12T06:59:16.472Z,9.21
2023-02-12T07:00:16.534Z,8.41
2023-02-12T07:01:16.532Z,9.01
2023-02-12T07:02:16.532Z,9.16
2023-02-12T07:03:16.600Z,9.52
2023-02-12T07:04:16.665Z,8.77
2023-02-12T07:05:16.671Z,9.31
2023-02-12T07:06:16.694Z,9.17
2023-02-12T07:07:16.683Z,9.65
2023-02-12T07:08:16.711Z,8.67
2023-02-12T07:09:16.732Z,8.73
2023-02-12T07:10:16.780Z,8.34
2023-02-12T07:11:16.822Z,9.11
2023-02-12T07:12:16.858Z,8.71
2023-02-12T07:13:16.928Z,7.91
2023-02-12T07:14:17.009Z,8.94
2023-02-12T07:15:16.988Z,9.14
2023-02-12T07:16:17.130Z,9.57
2023-02-12T07:17:17.060Z,8.62
2023-02-12T07:18:17.113Z,10.13
2023-02-12T07:19:17.167Z,9.23
2023-02-12T07:20:17.192Z,8.83
2023-02-12T07:21:17.203Z,9.30
2023-02-12T07:22:17.251Z,9.30
2023-02-12T07:23:17.258Z,8.91
2023-02-12T07:24:17.316Z,8.58
2023-02-12T07:25:17.366Z,8.34
2023-02-12T07:26:17.388Z,8.96
2023-02-12T07:27:17.421Z,8.58
2023-02-12T07:28:17.552Z,9.16
2023-02-12T07:29:17.541Z,9.12
2023-02-12T07:30:17.550Z,9.34
2023-02-12T07:31:17.756Z,9.18
2023-02-12T07:32:17.617Z,9.00
2023-02-12T07:33:17.674Z,9.33
2023-02-12T07:34:17.677Z,9.02
2023-02-12T07:35:17.750Z,8.99
2023-02-12T07:36:17.788Z,9.27
2023-02-12T07:37:17.823Z,9.47
2023-02-12T07:38:17.854Z,9.00
2023-02-12T07:39:17.914Z,9.22
2023-02-12T07:40:17.924Z,9.09
2023-02-12T07:41:17.959Z,8.96
2023-02-12T07:42:18.002Z,9.53
2023-02-12T07:43:18.025Z,8.78
2023-02-12T07:44:18.072Z,9.70
2023-02-12T07:45:18.074Z,9.14
2023-02-12T07:46:18.213Z,9.18
2023-02-12T07:47:18.143Z,9.63
2023-02-12T07:48:18.152Z,8.87
2023-02-12T07:49:18.186Z,8.83
2023-02-12T07:50:18.233Z,9.03
2023-02-12T07:51:18.302Z,9.18
2023-02-12T07:52:18.309Z,8.73
2023-02-12T07:53:18.310Z,9.44
2023-02-12T07:54:18.377Z,9.85
2023-02-12T07:55:18.434Z,8.97
2023-02-12T07:56:18.503Z,9.16
2023-02-12T07:57:18.500Z,9.13
2023-02-12T07:58:18.540Z,9.02
2023-02-12T07:59:18.574Z,9.71
2023-02-12T08:00:18.629Z,8.52
2023-02-12T08:01:18.603Z,9.20
2023-02-12T08:02:18.663Z,8.95
2023-02-12T08:03:18.657Z,8.50
2023-02-12T08:04:18.775Z,9.52
2023-02-12T08:05:18.711Z,9.76
2023-02-12T08:06:18.747Z,9.46
2023-02-12T08:07:18.793Z,8.89
2023-02-12T08:08:18.787Z,8.07
2023-02-12T08:09:18.867Z,9.63
2023-02-12T08:10:18.878Z,9.37
2023-02-12T08:11:18.950Z,8.62
2023-02-12T08:12:18.968Z,8.80
2023-02-12T08:13:19.021Z,9.01
2023-02-12T08:14:19.068Z,9.28
2023-02-12T08:15:19.036Z,8.71
2023-02-12T08:16:19.134Z,8.93
2023-02-12T08:17:19.111Z,9.37
2023-02-12T08:18:19.156Z,9.39
2023-02-12T08:19:23.298Z,9.38
2023-02-12T08:20:20.139Z,8.98
2023-02-12T08:21:19.196Z,9.18
2023-02-12T08:22:19.132Z,9.34
2023-02-12T08:23:19.191Z,9.23
2023-02-12T08:24:19.141Z,8.55
2023-02-12T08:25:19.156Z,9.53
2023-02-12T08:26:19.157Z,8.77
2023-02-12T08:27:19.141Z,9.15
2023-02-12T08:28:19.222Z,8.40
2023-02-12T08:29:19.187Z,8.84
2023-02-12T08:30:19.162Z,8.49
2023-02-12T08:31:19.208Z,8.50
2023-02-12T08:32:19.146Z,9.16
2023-02-12T08:33:19.186Z,9.03
2023-02-12T08:34:19.283Z,9.00
2023-02-12T08:35:19.262Z,9.08
2023-02-12T08:36:19.340Z,9.08
2023-02-12T08:37:19.361Z,9.00
2023-02-12T08:38:19.395Z,9.04
2023-02-12T08:39:19.453Z,10.13
2023-02-12T08:40:19.511Z,9.32
2023-02-12T08:41:21.364Z,9.21
2023-02-12T08:42:19.562Z,8.87
2023-02-12T08:43:19.598Z,9.96
2023-02-12T08:44:19.595Z,8.84
2023-02-12T08:45:19.640Z,8.86
2023-02-12T08:46:19.698Z,9.35
2023-02-12T08:47:19.682Z,9.72
2023-02-12T08:48:19.734Z,9.47
2023-02-12T08:49:19.760Z,9.70
2023-02-12T08:50:19.812Z,8.84
2023-02-12T08:51:19.851Z,9.67
2023-02-12T08:52:19.850Z,9.07
2023-02-12T09:11:20.537Z,9.64
2023-02-12T09:12:20.614Z,9.59
2023-02-12T09:13:20.611Z,9.25
2023-02-12T09:14:20.624Z,9.10
2023-02-12T09:15:20.708Z,9.99
2023-02-12T09:16:20.726Z,9.54
2023-02-12T09:17:20.786Z,8.86
2023-02-12T09:18:20.808Z,9.51
2023-02-12T09:19:20.854Z,9.61
2023-02-12T09:20:20.857Z,9.43
2023-02-12T09:21:20.878Z,9.74
2023-02-12T09:22:20.919Z,9.58
2023-02-12T09:23:20.975Z,9.36
2023-02-12T09:24:20.981Z,9.25
2023-02-12T09:25:21.050Z,9.99
2023-02-12T09:26:21.063Z,8.60
2023-02-12T09:27:21.060Z,9.23
2023-02-12T09:28:21.124Z,9.85
2023-02-12T09:29:21.165Z,9.06
2023-02-12T09:30:21.114Z,8.96
2023-02-12T09:31:21.246Z,9.57
2023-02-12T09:32:21.197Z,9.11
2023-02-12T09:33:21.252Z,9.68
2023-02-12T09:34:21.267Z,9.31
2023-02-12T09:35:21.328Z,9.74
2023-02-12T09:36:21.372Z,9.66
2023-02-12T09:37:21.426Z,9.81
2023-02-12T09:38:21.491Z,9.84
2023-02-12T09:39:21.551Z,9.54
2023-02-12T09:40:21.602Z,9.19
2023-02-12T09:41:21.669Z,9.51
2023-02-12T09:42:21.664Z,9.53
2023-02-12T09:43:21.716Z,8.85
2023-02-12T09:44:21.797Z,9.54
2023-02-12T09:45:21.848Z,10.16
2023-02-12T09:46:21.916Z,9.01
2023-02-12T09:47:21.916Z,8.95
2023-02-12T09:48:21.982Z,9.99
2023-02-12T09:49:22.021Z,9.62
2023-02-12T09:50:22.040Z,9.51
2023-02-12T09:51:22.060Z,9.06
2023-02-12T09:52:22.119Z,9.47
2023-02-12T09:53:22.180Z,9.64
2023-02-12T09:54:22.217Z,9.03
2023-02-12T09:55:22.212Z,9.84
2023-02-12T09:56:22.221Z,8.97
2023-02-12T09:57:22.246Z,10.14
2023-02-12T09:58:22.308Z,9.11
2023-02-12T09:59:22.356Z,9.57
2023-02-12T10:00:22.410Z,8.64
2023-02-12T10:01:22.474Z,9.19
2023-02-12T10:02:22.482Z,10.47
2023-02-12T10:03:22.585Z,9.63
2023-02-12T10:04:22.627Z,9.49
2023-02-12T10:05:22.647Z,9.58
2023-02-12T10:06:22.665Z,8.92
2023-02-12T10:07:22.712Z,9.63
2023-02-12T10:08:24.860Z,10.17
2023-02-12T10:09:22.798Z,9.34
2023-02-12T10:10:22.912Z,9.10
2023-02-12T10:11:22.900Z,10.17
2023-02-12T10:12:22.956Z,9.61
2023-02-12T10:13:22.988Z,9.44
2023-02-12T10:14:23.047Z,9.27
2023-02-12T10:15:23.093Z,9.73
2023-02-12T10:16:23.202Z,8.64
2023-02-12T10:17:23.195Z,9.36
2023-02-12T10:18:23.233Z,9.60
2023-02-12T10:19:23.304Z,9.52
2023-02-12T10:20:23.380Z,9.56
2023-02-12T10:21:23.420Z,9.16
2023-02-12T10:22:23.487Z,9.91
2023-02-12T10:23:23.505Z,9.94
2023-02-12T10:24:23.554Z,9.56
2023-02-12T10:25:23.584Z,9.34
2023-02-12T10:26:23.662Z,9.36
2023-02-12T10:29:23.854Z,8.95
2023-02-12T10:30:23.828Z,9.37
2023-02-12T10:31:24.054Z,9.47
2023-02-12T10:32:23.942Z,10.11
2023-02-12T10:33:23.980Z,10.02
2023-02-12T10:34:24.034Z,9.50
2023-02-12T10:35:24.030Z,8.95
2023-02-12T10:52:24.880Z,9.76
2023-02-12T10:54:24.943Z,9.50
2023-02-12T10:56:25.048Z,8.86
2023-02-12T10:59:25.187Z,9.26
2023-02-12T11:00:25.241Z,8.89
2023-02-12T11:01:25.247Z,8.94
2023-02-12T11:02:25.273Z,8.77
2023-02-12T11:03:25.295Z,9.72
2023-02-12T11:04:25.339Z,8.35
2023-02-12T11:05:25.379Z,9.08
2023-02-12T11:06:25.436Z,9.42
2023-02-12T11:07:25.473Z,9.29
2023-02-12T11:08:25.511Z,9.28
2023-02-12T11:09:25.554Z,9.41
2023-02-12T11:10:25.558Z,8.78
2023-02-12T11:11:25.629Z,8.94
2023-02-12T11:13:25.679Z,8.99
2023-02-12T11:14:25.720Z,8.92
2023-02-12T11:15:25.753Z,9.87
2023-02-12T11:16:25.854Z,9.83
2023-02-12T11:17:25.870Z,8.98
2023-02-12T11:18:25.916Z,8.95
2023-02-12T11:19:25.963Z,9.89
2023-02-12T11:20:26.001Z,8.76
2023-02-12T11:21:26.033Z,8.60
2023-02-12T11:22:26.076Z,9.03
2023-02-12T11:23:26.132Z,9.20
2023-02-12T11:24:26.207Z,9.65
2023-02-12T11:25:26.242Z,9.80
2023-02-12T11:26:26.331Z,8.64
2023-02-12T11:27:26.353Z,8.95
2023-02-12T11:28:26.575Z,9.37
2023-02-12T11:29:26.460Z,8.88
2023-02-12T11:30:26.499Z,8.73
2023-02-12T11:31:26.689Z,9.02
2023-02-12T11:32:26.631Z,9.63
2023-02-12T11:33:26.705Z,8.55
2023-02-12T11:34:26.765Z,9.09
2023-02-12T11:35:26.788Z,8.75
2023-02-12T11:36:26.861Z,9.06
2023-02-12T11:37:26.931Z,8.05
2023-02-12T11:38:26.944Z,8.35
2023-02-12T11:39:27.036Z,8.96
2023-02-12T11:40:27.086Z,8.93
2023-02-12T11:41:27.146Z,9.57
2023-02-12T11:42:27.197Z,9.07
2023-02-12T11:43:27.262Z,8.27
2023-02-12T11:44:27.306Z,8.30
2023-02-12T11:45:27.346Z,8.83
2023-02-12T11:46:27.428Z,8.91
2023-02-12T11:47:27.418Z,8.22
2023-02-12T11:48:27.517Z,9.20
2023-02-12T11:49:27.555Z,8.77
2023-02-12T11:50:27.610Z,9.12
2023-02-12T11:51:27.674Z,9.07
2023-02-12T11:52:27.734Z,8.57
2023-02-12T11:53:27.794Z,9.25
2023-02-12T11:54:27.914Z,8.34
2023-02-12T11:55:27.934Z,8.67
2023-02-12T11:56:27.965Z,7.82
2023-02-12T11:57:28.028Z,8.64
2023-02-12T11:58:28.064Z,9.02
2023-02-12T11:59:28.129Z,8.40
2023-02-12T12:00:28.192Z,9.43
2023-02-12T12:01:28.275Z,9.13
2023-02-12T12:02:28.288Z,7.80
2023-02-12T12:03:28.411Z,8.70
2023-02-12T12:04:28.420Z,7.93
2023-02-12T12:05:28.441Z,7.93
2023-02-12T12:06:28.492Z,8.53
2023-02-12T12:07:28.540Z,9.34
2023-02-12T12:08:28.607Z,8.73
2023-02-12T12:09:28.717Z,9.09
2023-02-12T12:10:28.730Z,7.83
2023-02-12T12:11:28.775Z,8.62
2023-02-12T12:12:28.840Z,8.00
2023-02-12T12:13:28.850Z,8.54
2023-02-12T12:14:28.913Z,7.61
2023-02-12T12:15:28.973Z,8.02
2023-02-12T12:16:29.056Z,8.09
2023-02-12T12:17:29.050Z,8.98
2023-02-12T12:18:29.112Z,7.23
2023-02-12T12:19:29.233Z,8.21
2023-02-12T12:23:29.314Z,7.65
2023-02-12T12:24:29.372Z,8.60
2023-02-12T12:25:29.377Z,8.64
2023-02-12T12:26:29.427Z,8.35
2023-02-12T12:27:29.457Z,8.11
2023-02-12T12:28:29.537Z,9.47
2023-02-12T12:29:29.575Z,8.72
2023-02-12T12:30:29.629Z,8.61
2023-02-12T12:31:29.648Z,8.87
2023-02-12T12:32:29.690Z,7.98
2023-02-12T12:33:29.748Z,7.92
2023-02-12T12:34:29.790Z,8.94
2023-02-12T12:35:29.827Z,8.45
2023-02-12T12:36:29.870Z,8.28
2023-02-12T12:45:30.191Z,7.88
2023-02-12T12:46:30.139Z,9.09
2023-02-12T12:47:30.185Z,8.37
2023-02-12T12:48:30.218Z,8.17
2023-02-12T12:49:30.693Z,8.59
2023-02-12T12:50:30.331Z,7.87
2023-02-12T12:51:30.337Z,7.78
2023-02-12T12:52:30.365Z,7.73
2023-02-12T12:53:30.399Z,7.76
2023-02-12T12:54:30.493Z,8.43
2023-02-12T12:55:30.509Z,6.95
2023-02-12T12:56:30.561Z,7.79
2023-02-12T12:57:30.632Z,8.40
2023-02-12T12:58:30.703Z,8.00
2023-02-12T12:59:31.049Z,7.65
2023-02-12T13:00:30.750Z,7.49
2023-02-12T13:01:30.850Z,8.61
2023-02-12T13:02:30.903Z,8.09
2023-02-12T13:19:31.485Z,7.70
2023-02-12T13:20:31.508Z,8.89
2023-02-12T13:21:31.517Z,7.39
2023-02-12T13:22:31.545Z,7.31
2023-02-12T13:23:31.587Z,7.98
2023-02-12T13:24:31.628Z,7.38
2023-02-12T13:25:31.650Z,6.85
2023-02-12T13:26:31.678Z,8.06
2023-02-12T13:27:34.182Z,7.37
2023-02-12T13:28:31.996Z,7.65
2023-02-12T13:29:31.992Z,8.20
2023-02-12T13:30:32.089Z,7.81
2023-02-12T13:31:34.120Z,7.36
2023-02-12T13:32:32.152Z,7.57
2023-02-12T13:33:33.295Z,7.49
2023-02-12T13:34:32.185Z,6.94
2023-02-12T15:46:36.237Z,5.76
2023-02-12T15:47:36.102Z,6.32
2023-02-12T15:48:36.121Z,6.06
2023-02-12T15:49:36.212Z,5.52
2023-02-12T15:50:36.233Z,6.24
2023-02-12T15:51:36.274Z,5.78
2023-02-12T15:52:36.299Z,5.67
2023-02-12T15:53:36.361Z,6.07
2023-02-12T15:54:36.358Z,5.92
2023-02-12T15:55:36.418Z,5.35
2023-02-12T15:56:36.509Z,5.80
2023-02-12T15:57:36.481Z,5.93
2023-02-12T15:58:36.529Z,6.32
2023-02-12T15:59:36.602Z,6.20
2023-02-12T16:00:36.594Z,5.76
2023-02-12T16:01:36.703Z,5.78
2023-02-12T16:02:36.709Z,5.59
2023-02-12T16:03:36.717Z,6.10
2023-02-12T16:04:36.770Z,6.09
2023-02-12T16:05:36.830Z,5.99
2023-02-12T16:06:36.824Z,5.89
2023-02-12T16:07:36.862Z,6.29
2023-02-12T16:08:36.938Z,6.05
2023-02-12T16:09:36.943Z,5.55
2023-02-12T16:10:37.024Z,5.49
2023-02-12T16:11:37.079Z,5.70
2023-02-12T16:12:37.089Z,6.25
2023-02-12T16:13:37.108Z,6.16
2023-02-12T16:14:37.157Z,5.95
2023-02-12T16:15:37.162Z,5.96
2023-02-12T16:16:37.311Z,5.26
2023-02-12T16:17:37.225Z,5.47
2023-02-12T16:18:37.294Z,5.86
2023-02-12T16:19:37.336Z,5.78
2023-02-12T16:20:37.353Z,5.67
2023-02-12T16:21:37.426Z,6.00
2023-02-12T16:22:37.450Z,5.49
2023-02-12T16:23:37.491Z,5.64
2023-02-12T16:24:37.534Z,6.11
2023-02-12T16:25:37.582Z,5.41
2023-02-12T16:26:37.568Z,5.59
2023-02-12T16:27:37.657Z,5.87
2023-02-12T16:28:37.779Z,5.63
2023-02-12T16:29:37.792Z,5.65
2023-02-12T16:30:37.780Z,5.07
2023-02-12T16:31:37.872Z,6.30
2023-02-12T16:32:37.820Z,6.30
2023-02-12T16:33:37.843Z,5.71
2023-02-12T16:34:37.898Z,5.23
2023-02-12T16:35:37.910Z,5.90
2023-02-12T16:36:37.974Z,5.67
2023-02-12T16:37:37.972Z,6.28
2023-02-12T16:38:37.971Z,6.23
2023-02-12T16:39:38.045Z,6.23
2023-02-12T16:40:38.052Z,5.60
2023-02-12T16:41:38.077Z,5.47
2023-02-12T16:42:38.107Z,5.97
2023-02-12T16:43:38.138Z,6.64